Time;durP1;ratioP1;P1;durP2;ratioP2;P2;SDS_P1;SDS_P2;PMS_P1;PMS_P2;Temp;Humidity;BMP_temperature;BMP_pressure;BME280_temperature;BME280_humidity;BME280_pressure;Samples;Min_cycle;Max_cycle;Signal;HPM_P1;HPM_P2
2022/02/03 00:00:08;;;;;;;8.87;7.87;;;;;;;5.18;100.00;96167.69;5015750;28;20286;-81
2022/02/03 00:02:47;;;;;;;10.00;7.83;;;;;;;5.15;100.00;96170.47;5016729;28;20218;-82
2022/02/03 00:05:18;;;;;;;9.57;8.00;;;;;;;5.19;100.00;96183.97;5015919;28;20179;-82
2022/02/03 00:10:38;;;;;;;10.00;7.77;;;;;;;5.20;100.00;96180.47;5015283;28;20195;-81
2022/02/03 00:16:26;;;;;;;11.07;8.33;;;;;;;5.13;100.00;96179.22;5016006;28;20201;-80
2022/02/03 00:24:35;;;;;;;10.47;8.00;;;;;;;5.20;100.00;96170.16;5015033;28;20186;-80
2022/02/03 00:27:08;;;;;;;10.53;7.73;;;;;;;5.17;100.00;96166.03;4998572;28;20199;-81
2022/02/03 00:30:18;;;;;;;9.20;6.97;;;;;;;5.15;100.00;96157.59;4998191;28;20191;-79
2022/02/03 00:35:22;;;;;;;8.10;6.57;;;;;;;5.14;100.00;96161.09;5014484;28;20171;-80
2022/02/03 00:48:54;;;;;;;5.87;5.00;;;;;;;5.11;100.00;96176.72;5017167;28;20236;-81
2022/02/03 00:51:21;;;;;;;5.50;3.90;;;;;;;5.03;100.00;96163.53;4999903;28;20553;-81
2022/02/03 00:53:46;;;;;;;6.13;4.27;;;;;;;5.09;100.00;96168.28;4996947;28;20173;-82
2022/02/03 00:56:19;;;;;;;5.40;4.23;;;;;;;5.06;100.00;96161.59;4996312;28;20177;-82
2022/02/03 00:58:54;;;;;;;4.57;3.93;;;;;;;5.04;100.00;96162.63;4997672;28;20227;-82
2022/02/03 01:01:23;;;;;;;4.40;3.50;;;;;;;5.08;100.00;96164.06;5013407;28;20182;-82
2022/02/03 01:03:50;;;;;;;4.10;3.63;;;;;;;5.05;100.00;96152.22;4997875;28;20194;-80
2022/02/03 01:06:17;;;;;;;4.27;3.40;;;;;;;5.07;100.00;96149.53;5014438;28;20222;-81
2022/02/03 01:08:44;;;;;;;3.90;3.40;;;;;;;5.06;100.00;96153.06;5014307;28;20189;-79
2022/02/03 01:11:16;;;;;;;4.10;3.40;;;;;;;5.07;100.00;96155.50;5030094;28;20322;-80
2022/02/03 01:16:40;;;;;;;3.97;3.37;;;;;;;5.07;100.00;96146.97;5013802;28;20712;-80
2022/02/03 01:19:26;;;;;;;4.60;3.57;;;;;;;5.03;100.00;96153.22;5014026;28;20610;-80
2022/02/03 01:43:17;;;;;;;5.47;4.67;;;;;;;4.98;100.00;96140.66;5032674;28;20174;-82
2022/02/03 01:43:39;;;;;;;6.63;5.33;;;;;;;4.93;100.00;96126.44;5012848;28;20186;-80
2022/02/03 01:46:16;;;;;;;6.90;5.60;;;;;;;4.87;100.00;96126.84;4998355;28;20234;-80
2022/02/03 01:54:04;;;;;;;5.33;4.73;;;;;;;4.90;100.00;96121.50;5012527;28;20191;-82
2022/02/03 01:56:37;;;;;;;6.67;5.20;;;;;;;4.90;100.00;96122.31;5010562;28;20179;-81
2022/02/03 01:59:03;;;;;;;6.37;5.50;;;;;;;4.91;100.00;96126.53;5011960;28;20671;-81
2022/02/03 02:01:31;;;;;;;7.73;5.83;;;;;;;4.90;100.00;96131.78;4995139;28;20183;-81
2022/02/03 02:04:25;;;;;;;8.60;6.27;;;;;;;4.86;100.00;96118.31;5011669;28;20222;-81
2022/02/03 02:07:22;;;;;;;8.47;7.03;;;;;;;4.90;100.00;96116.34;5011808;28;20239;-81
2022/02/03 02:10:02;;;;;;;9.13;6.87;;;;;;;4.93;100.00;96119.53;5011632;28;20672;-81
2022/02/03 02:12:53;;;;;;;11.00;7.53;;;;;;;4.89;100.00;96110.38;4996104;28;20258;-81
2022/02/03 02:15:51;;;;;;;8.83;7.60;;;;;;;4.92;100.00;96110.16;5012400;28;20183;-81
2022/02/03 02:18:35;;;;;;;10.47;8.10;;;;;;;4.96;100.00;96106.50;5011862;28;20175;-80
2022/02/03 02:38:29;;;;;;;9.40;7.40;;;;;;;4.97;100.00;96103.00;4992886;28;20255;-80
2022/02/03 02:43:51;;;;;;;7.83;6.93;;;;;;;5.03;100.00;96114.63;5011436;28;20190;-79
2022/02/03 02:46:23;;;;;;;8.07;7.20;;;;;;;5.02;100.00;96111.22;5012306;28;20696;-82
2022/02/03 02:49:00;;;;;;;8.97;6.73;;;;;;;5.00;100.00;96114.81;5010743;28;20273;-82
2022/02/03 02:51:38;;;;;;;7.33;6.63;;;;;;;4.96;100.00;96105.66;5011435;28;20213;-81
2022/02/03 02:56:50;;;;;;;7.47;6.60;;;;;;;4.90;100.00;96091.44;5009413;28;20206;-82
2022/02/03 03:02:38;;;;;;;7.37;6.17;;;;;;;4.83;100.00;96073.00;5010715;28;20237;-82
2022/02/03 03:30:03;;;;;;;4.93;4.13;;;;;;;4.80;100.00;96062.91;5015415;28;20316;-80
2022/02/03 03:32:52;;;;;;;6.33;4.73;;;;;;;4.78;100.00;96051.06;5014295;28;20179;-80
2022/02/03 03:35:43;;;;;;;5.93;4.03;;;;;;;4.77;100.00;96062.25;5000469;28;20245;-80
2022/02/03 03:38:11;;;;;;;6.20;4.20;;;;;;;4.77;100.00;96057.13;5016344;28;20178;-80
2022/02/03 03:40:39;;;;;;;5.57;4.33;;;;;;;4.80;100.00;96052.63;5014619;28;20274;-81
2022/02/03 03:43:06;;;;;;;4.90;3.80;;;;;;;4.79;100.00;96068.97;5014050;28;20222;-81
2022/02/03 03:45:33;;;;;;;4.20;3.57;;;;;;;4.81;100.00;96061.97;4998318;28;20557;-80
2022/02/03 03:48:00;;;;;;;5.63;3.40;;;;;;;4.79;100.00;96076.69;5013883;28;20207;-80
2022/02/03 03:50:28;;;;;;;4.00;3.10;;;;;;;4.76;100.00;96068.34;4981662;28;20210;-80
2022/02/03 03:53:01;;;;;;;4.53;3.37;;;;;;;4.79;100.00;96061.25;5017307;28;20182;-81
2022/02/03 03:55:42;;;;;;;4.13;3.07;;;;;;;4.86;100.00;96063.41;5003595;28;20657;-81
2022/02/03 03:58:37;;;;;;;3.93;3.23;;;;;;;4.91;100.00;96053.66;5014300;28;20596;-81
2022/02/03 04:41:10;;;;;;;1.93;1.50;;;;;;;4.88;100.00;96017.84;5013933;28;20203;-81
2022/02/03 04:53:28;;;;;;;2.00;1.60;;;;;;;4.84;100.00;96009.47;5013047;28;20186;-79
2022/02/03 04:56:02;;;;;;;1.70;1.60;;;;;;;4.94;100.00;96007.94;5014447;28;20215;-82
2022/02/03 05:04:35;;;;;;;2.23;1.70;;;;;;;5.06;100.00;95998.59;5013034;28;20183;-81
2022/02/03 05:07:35;;;;;;;1.60;1.50;;;;;;;5.11;100.00;95987.03;5012582;28;20203;-81
2022/02/03 05:10:40;;;;;;;2.50;1.60;;;;;;;5.14;100.00;95993.75;4999470;28;20290;-81
2022/02/03 05:13:38;;;;;;;2.23;1.93;;;;;;;5.11;100.00;95999.09;5012320;28;20183;-81
2022/02/03 05:19:42;;;;;;;1.80;1.30;;;;;;;4.95;100.00;95986.44;5013588;28;20175;-80
2022/02/03 05:42:03;;;;;;;5.10;4.37;;;;;;;4.82;100.00;95981.28;5013152;28;20607;-81
2022/02/03 05:44:08;;;;;;;2.50;2.30;;;;;;;4.96;100.00;95969.25;5012136;28;20186;-80
2022/02/03 05:46:57;;;;;;;2.20;1.80;;;;;;;4.98;100.00;95963.06;5012846;28;20217;-82
2022/02/03 05:54:59;;;;;;;2.07;1.50;;;;;;;4.91;100.00;95953.28;5013416;28;20224;-81
2022/02/03 06:08:21;;;;;;;3.33;3.03;;;;;;;4.26;100.00;95956.72;5033914;28;20224;-79
2022/02/03 06:13:43;;;;;;;4.13;3.47;;;;;;;4.50;100.00;95955.09;5032052;28;20193;-79
2022/02/03 06:21:29;;;;;;;1.40;1.30;;;;;;;4.56;100.00;95951.31;5032161;28;20209;-78
2022/02/03 06:29:25;;;;;;;2.73;1.03;;;;;;;4.50;100.00;95936.28;5032309;28;20256;-78
2022/02/03 06:31:52;;;;;;;1.20;1.10;;;;;;;4.47;100.00;95926.19;5030691;28;20182;-79
2022/02/03 06:34:19;;;;;;;1.40;0.87;;;;;;;4.49;100.00;95921.78;5031721;28;20209;-78
2022/02/03 06:36:44;;;;;;;1.23;1.13;;;;;;;4.50;100.00;95931.13;5032481;28;20179;-79
2022/02/03 06:39:23;;;;;;;2.70;1.00;;;;;;;4.48;100.00;95936.38;5026686;28;20222;-79
2022/02/03 06:41:53;;;;;;;1.83;1.00;;;;;;;4.46;100.00;95929.69;5019615;28;20174;-79
2022/02/03 06:44:20;;;;;;;2.30;1.67;;;;;;;4.48;100.00;95935.56;5015760;28;20190;-80
2022/02/03 06:46:49;;;;;;;1.70;1.60;;;;;;;4.47;100.00;95945.03;5011394;28;20198;-79
2022/02/03 06:49:27;;;;;;;2.10;1.87;;;;;;;4.46;100.00;95932.25;5021882;28;20226;-79
2022/02/03 06:52:08;;;;;;;2.10;1.90;;;;;;;4.46;100.00;95939.97;5032792;28;20209;-80
2022/02/03 06:57:11;;;;;;;3.37;2.20;;;;;;;4.46;100.00;95932.25;5020833;28;20198;-82
2022/02/03 06:59:46;;;;;;;2.73;2.53;;;;;;;4.44;100.00;95945.22;5006551;28;20194;-81
2022/02/03 07:02:11;;;;;;;2.70;2.50;;;;;;;4.43;100.00;95950.47;5017150;28;20205;-82
2022/02/03 07:04:42;;;;;;;2.87;2.67;;;;;;;4.49;100.00;95948.31;5032500;28;20179;-84
2022/02/03 07:07:08;;;;;;;3.57;2.67;;;;;;;4.44;100.00;95940.09;5015329;28;20295;-81
2022/02/03 07:09:33;;;;;;;2.20;2.00;;;;;;;4.46;100.00;95938.22;5018809;28;20243;-81
2022/02/03 07:12:02;;;;;;;4.37;1.90;;;;;;;4.45;100.00;95930.63;5033929;28;20190;-81
2022/02/03 07:14:30;;;;;;;2.50;1.57;;;;;;;4.48;100.00;95930.41;5014123;28;20671;-80
2022/02/03 07:16:58;;;;;;;2.23;1.70;;;;;;;4.47;100.00;95924.44;5033724;28;20174;-81
2022/02/03 07:19:24;;;;;;;2.80;1.73;;;;;;;4.52;100.00;95932.69;5033919;28;20694;-81
2022/02/03 07:21:49;;;;;;;1.67;1.57;;;;;;;4.52;100.00;95931.88;5015790;28;20183;-81
2022/02/03 07:24:14;;;;;;;1.93;1.60;;;;;;;4.49;100.00;95927.72;5018464;28;20182;-82
2022/02/03 07:26:40;;;;;;;2.07;1.60;;;;;;;4.58;100.00;95926.31;5032757;28;20292;-81
2022/02/03 07:29:05;;;;;;;1.73;1.63;;;;;;;4.58;100.00;95915.19;5032487;28;20222;-80
2022/02/03 07:31:30;;;;;;;1.67;1.50;;;;;;;4.63;100.00;95918.28;5031471;28;20189;-81
2022/02/03 07:34:00;;;;;;;1.90;1.63;;;;;;;4.71;100.00;95916.84;5015928;28;20179;-82
2022/02/03 07:36:25;;;;;;;1.73;1.60;;;;;;;4.77;100.00;95907.88;5033075;28;20167;-81
2022/02/03 07:38:52;;;;;;;1.83;1.63;;;;;;;4.83;100.00;95897.19;5017927;28;20188;-81
2022/02/03 07:41:17;;;;;;;2.47;1.80;;;;;;;4.76;100.00;95912.22;5033307;28;20183;-80
2022/02/03 07:43:43;;;;;;;2.40;2.20;;;;;;;4.76;100.00;95911.38;5013068;28;20561;-81
2022/02/03 07:46:08;;;;;;;2.17;2.00;;;;;;;4.70;100.00;95906.66;5004586;28;20407;-82
2022/02/03 07:48:33;;;;;;;2.37;1.77;;;;;;;4.69;100.00;95905.84;5035736;28;20218;-80
2022/02/03 07:50:58;;;;;;;2.30;2.00;;;;;;;4.78;100.00;95902.66;5019679;28;20224;-82
2022/02/03 07:53:24;;;;;;;3.00;2.70;;;;;;;4.77;100.00;95903.59;5038361;28;20174;-81
2022/02/03 07:55:49;;;;;;;6.60;5.07;;;;;;;4.92;100.00;95888.03;5025506;28;20194;-81
2022/02/03 07:58:15;;;;;;;6.43;4.97;;;;;;;4.97;100.00;95881.63;5020035;28;20189;-80
2022/02/03 08:00:40;;;;;;;4.43;3.70;;;;;;;4.94;100.00;95876.69;5036396;28;20190;-81
2022/02/03 08:03:10;;;;;;;3.70;3.20;;;;;;;5.07;100.00;95881.81;5039273;28;20179;-79
2022/02/03 08:05:37;;;;;;;3.20;2.10;;;;;;;5.14;100.00;95882.22;5039425;28;20214;-79
2022/02/03 08:10:51;;;;;;;1.47;1.37;;;;;;;5.32;100.00;95881.78;5035539;28;20206;-80
2022/02/03 08:13:20;;;;;;;1.13;1.10;;;;;;;5.34;100.00;95869.59;5035765;28;20198;-80
2022/02/03 08:15:48;;;;;;;2.00;1.07;;;;;;;5.65;100.00;95862.25;5036705;28;20210;-80
2022/02/03 08:18:18;;;;;;;1.10;1.00;;;;;;;5.66;100.00;95849.28;5035232;28;20178;-81
2022/02/03 08:20:51;;;;;;;0.97;0.90;;;;;;;5.74;100.00;95845.31;5020266;28;20622;-82
2022/02/03 08:25:53;;;;;;;1.17;1.07;;;;;;;5.80;100.00;95843.13;5037928;28;20280;-79
2022/02/03 08:31:05;;;;;;;1.07;1.00;;;;;;;5.65;100.00;95846.81;5036914;28;20206;-80
2022/02/03 08:33:31;;;;;;;1.50;1.40;;;;;;;5.78;100.00;95857.88;5020209;28;20186;-80
2022/02/03 08:36:01;;;;;;;1.77;1.67;;;;;;;5.71;100.00;95848.94;5036979;28;20197;-80
2022/02/03 08:38:47;;;;;;;1.30;1.20;;;;;;;5.65;100.00;95852.81;5019783;28;20174;-80
2022/02/03 08:41:13;;;;;;;1.20;1.10;;;;;;;5.72;100.00;95848.00;5021059;28;20581;-79
2022/02/03 08:43:39;;;;;;;1.00;1.00;;;;;;;5.55;100.00;95844.06;5022032;28;20226;-79
2022/02/03 08:46:06;;;;;;;1.20;1.10;;;;;;;5.67;100.00;95844.97;5019760;28;20178;-80
2022/02/03 08:48:32;;;;;;;1.03;0.90;;;;;;;5.69;100.00;95833.59;5036908;28;20175;-80
2022/02/03 08:50:59;;;;;;;1.30;1.20;;;;;;;5.77;100.00;95825.31;5018899;28;20213;-79
2022/02/03 08:53:30;;;;;;;1.47;1.23;;;;;;;5.74;100.00;95819.56;5019042;28;20674;-78
2022/02/03 08:59:18;;;;;;;1.77;1.50;;;;;;;5.89;100.00;95819.25;5036329;28;20178;-80
2022/02/03 09:29:26;;;;;;;2.10;1.90;;;;;;;6.14;98.15;95797.69;5035362;28;20209;-80
2022/02/03 09:37:04;;;;;;;1.80;1.70;;;;;;;6.45;97.22;95798.81;5034819;28;20176;-80
2022/02/03 09:50:19;;;;;;;2.77;2.57;;;;;;;6.71;96.79;95786.47;5036749;28;20194;-82
2022/02/03 09:58:20;;;;;;;1.23;1.13;;;;;;;6.67;96.66;95773.94;5020992;28;20223;-81
2022/02/03 10:01:07;;;;;;;1.20;1.10;;;;;;;7.10;95.16;95759.31;5018232;28;20648;-80
2022/02/03 10:06:15;;;;;;;1.20;1.10;;;;;;;7.36;93.44;95761.59;5030221;28;20178;-80
2022/02/03 10:09:06;;;;;;;1.73;1.10;;;;;;;7.27;94.09;95762.34;5024191;28;20187;-82
2022/02/03 10:11:31;;;;;;;2.47;2.27;;;;;;;7.62;93.35;95754.34;5008975;28;20182;-80
2022/02/03 10:13:58;;;;;;;1.10;1.10;;;;;;;7.48;93.07;95745.09;5033146;28;20194;-78
2022/02/03 10:16:26;;;;;;;1.93;1.40;;;;;;;7.56;92.31;95742.72;5033668;28;20171;-80
2022/02/03 10:19:12;;;;;;;1.20;1.10;;;;;;;7.64;92.01;95744.69;5015033;28;20206;-79
2022/02/03 10:21:38;;;;;;;1.10;1.00;;;;;;;7.56;91.96;95745.31;5021654;28;20202;-79
2022/02/03 10:24:06;;;;;;;1.13;1.03;;;;;;;7.61;91.81;95729.44;5037073;28;20608;-78
2022/02/03 10:26:43;;;;;;;1.20;1.10;;;;;;;7.93;90.16;95722.41;5038311;28;20198;-79
2022/02/03 10:29:12;;;;;;;1.30;1.13;;;;;;;7.79;90.64;95717.59;5037572;28;20213;-80
2022/02/03 10:31:40;;;;;;;0.80;0.80;;;;;;;7.97;89.63;95709.25;5012188;28;20187;-79
2022/02/03 10:34:10;;;;;;;1.33;1.10;;;;;;;8.00;89.91;95691.69;4997719;28;20198;-80
2022/02/03 10:36:56;;;;;;;0.90;0.90;;;;;;;8.12;89.95;95692.44;5005398;28;20302;-80
2022/02/03 10:45:34;;;;;;;1.00;0.90;;;;;;;8.15;88.52;95695.59;5040073;28;20220;-82
2022/02/03 10:50:59;;;;;;;1.23;1.13;;;;;;;7.70;90.60;95681.34;5037313;28;20213;-80
2022/02/03 10:53:45;;;;;;;1.37;1.20;;;;;;;7.98;90.09;95674.69;5039389;28;20190;-80
2022/02/03 10:56:39;;;;;;;2.40;0.80;;;;;;;7.92;89.26;95663.06;5043729;28;20187;-80
2022/02/03 11:07:44;;;;;;;2.23;1.10;;;;;;;8.02;89.62;95660.53;5036087;28;20221;-79
2022/02/03 11:13:16;;;;;;;0.90;0.90;;;;;;;8.35;89.11;95638.78;5003277;28;20186;-79
2022/02/03 11:15:42;;;;;;;0.90;0.90;;;;;;;8.43;88.53;95638.94;5002370;28;20700;-78
2022/02/03 11:18:08;;;;;;;1.17;1.00;;;;;;;8.28;88.48;95640.22;5003048;28;20206;-79
2022/02/03 11:20:39;;;;;;;0.90;0.77;;;;;;;8.03;89.27;95625.97;4999521;28;20205;-78
2022/02/03 11:28:31;;;;;;;1.30;1.20;;;;;;;8.13;89.50;95619.91;4990566;28;20207;-80
2022/02/03 11:39:05;;;;;;;2.30;1.70;;;;;;;8.12;90.23;95589.78;4985477;28;20200;-80
2022/02/03 11:47:06;;;;;;;1.80;1.70;;;;;;;8.10;89.85;95591.69;5029541;28;20222;-80
2022/02/03 12:01:04;;;;;;;2.27;2.07;;;;;;;8.09;91.38;95568.56;5037935;28;20602;-82
2022/02/03 12:12:49;;;;;;;2.20;2.00;;;;;;;7.88;92.91;95569.44;5019806;28;20202;-80
2022/02/03 12:15:39;;;;;;;2.63;2.40;;;;;;;7.96;92.70;95548.09;5035885;28;20281;-80
2022/02/03 12:18:16;;;;;;;3.77;2.30;;;;;;;8.15;91.62;95547.34;5034347;28;20239;-80
2022/02/03 12:23:45;;;;;;;2.30;2.10;;;;;;;8.00;91.63;95518.44;5036124;28;20178;-82
2022/02/03 12:26:26;;;;;;;2.50;2.30;;;;;;;8.04;91.56;95509.47;5036930;28;20186;-83
2022/02/03 12:28:58;;;;;;;2.87;2.67;;;;;;;7.91;93.45;95514.88;5013736;28;20183;-81
2022/02/03 12:31:50;;;;;;;3.20;2.47;;;;;;;7.93;92.50;95520.72;4997098;28;20195;-82
2022/02/03 12:37:07;;;;;;;3.00;2.30;;;;;;;7.93;91.13;95483.72;5033492;28;20186;-81
2022/02/03 12:39:46;;;;;;;2.20;2.00;;;;;;;8.16;90.59;95487.72;5005352;28;20199;-81
2022/02/03 12:42:31;;;;;;;2.37;2.17;;;;;;;7.96;91.28;95493.81;4998583;28;20278;-80
2022/02/03 12:45:16;;;;;;;2.07;1.87;;;;;;;7.95;91.51;95500.75;5019613;28;20178;-83
2022/02/03 12:47:45;;;;;;;6.20;2.60;;;;;;;7.83;91.93;95488.03;5034938;28;20289;-81
2022/02/03 12:50:22;;;;;;;2.80;2.20;;;;;;;7.61;91.53;95495.06;5016953;28;20206;-81
2022/02/03 12:52:47;;;;;;;5.03;3.20;;;;;;;7.45;92.83;95481.81;5018087;28;20178;-81
2022/02/03 12:55:21;;;;;;;4.70;2.60;;;;;;;7.21;93.44;95489.84;5034091;28;20183;-81
2022/02/03 12:57:50;;;;;;;4.17;3.20;;;;;;;7.28;93.80;95475.47;5033360;28;20261;-81
2022/02/03 13:00:25;;;;;;;2.90;2.60;;;;;;;7.33;93.73;95462.16;5034293;28;20230;-82
2022/02/03 13:02:53;;;;;;;3.30;2.80;;;;;;;7.32;93.24;95460.53;5031261;28;20269;-81
2022/02/03 13:05:23;;;;;;;3.83;3.03;;;;;;;7.25;93.46;95474.94;5035897;28;20184;-81
2022/02/03 13:07:54;;;;;;;4.50;2.40;;;;;;;7.18;93.21;95471.22;5014602;28;20238;-80
2022/02/03 13:10:21;;;;;;;8.00;7.30;;;;;;;7.14;92.58;95462.06;5019254;28;20198;-81
2022/02/03 13:12:54;;;;;;;3.10;2.90;;;;;;;7.23;93.16;95464.69;5015755;28;20178;-80
2022/02/03 13:15:42;;;;;;;4.60;4.30;;;;;;;7.27;93.15;95439.44;5014372;28;20281;-82
2022/02/03 13:18:14;;;;;;;2.87;2.67;;;;;;;7.19;92.95;95432.34;5016538;28;20195;-81
2022/02/03 13:20:48;;;;;;;4.87;4.47;;;;;;;7.21;92.41;95433.03;5017539;28;20289;-84
2022/02/03 13:23:18;;;;;;;3.50;2.73;;;;;;;7.31;92.63;95433.88;5031929;28;20201;-79
2022/02/03 13:26:03;;;;;;;2.20;1.83;;;;;;;7.07;92.88;95448.88;5032663;28;20644;-82
2022/02/03 13:28:44;;;;;;;2.20;2.07;;;;;;;7.13;93.42;95442.38;5031814;28;20637;-82
2022/02/03 13:31:35;;;;;;;4.10;3.00;;;;;;;7.29;92.89;95440.13;5032002;28;20695;-81
2022/02/03 13:34:14;;;;;;;2.97;2.07;;;;;;;7.34;92.37;95435.41;5031752;28;20182;-79
2022/02/03 13:36:46;;;;;;;8.23;5.37;;;;;;;7.17;93.01;95425.69;5017981;28;20178;-81
2022/02/03 13:39:24;;;;;;;4.57;3.40;;;;;;;7.37;92.93;95412.69;5015852;28;20293;-81
2022/02/03 13:42:00;;;;;;;2.53;2.33;;;;;;;7.37;91.87;95424.81;5031756;28;20263;-81
2022/02/03 13:44:29;;;;;;;1.90;1.80;;;;;;;7.33;91.90;95413.06;5007087;28;20183;-80
2022/02/03 13:46:54;;;;;;;2.90;2.60;;;;;;;7.24;92.26;95416.44;5000447;28;20219;-81
2022/02/03 13:49:21;;;;;;;3.10;1.80;;;;;;;7.13;93.11;95407.03;5029050;28;20507;-81
2022/02/03 13:51:58;;;;;;;3.00;2.70;;;;;;;7.12;93.15;95407.97;5018531;28;20194;-81
2022/02/03 14:20:10;;;;;;;1.70;1.40;;;;;;;6.98;95.55;95401.41;5034305;28;20260;-82
2022/02/03 14:27:56;;;;;;;3.20;2.20;;;;;;;6.95;95.70;95411.16;5033878;28;20624;-81
2022/02/03 14:30:23;;;;;;;2.00;1.83;;;;;;;6.97;96.23;95425.56;5018581;28;20226;-81
2022/02/03 14:32:51;;;;;;;1.50;1.40;;;;;;;6.94;96.70;95423.25;5034969;28;20239;-81
2022/02/03 14:35:18;;;;;;;1.90;1.70;;;;;;;6.91;97.58;95415.78;5018030;28;20287;-81
2022/02/03 14:37:59;;;;;;;2.33;2.10;;;;;;;6.85;97.84;95413.69;5034654;28;20171;-80
2022/02/03 14:40:40;;;;;;;4.53;2.90;;;;;;;6.62;99.48;95396.72;5019761;28;20202;-82
2022/02/03 14:43:06;;;;;;;6.60;4.23;;;;;;;6.56;100.00;95392.09;5034700;28;20166;-82
2022/02/03 14:45:32;;;;;;;5.37;3.97;;;;;;;6.49;100.00;95390.00;5034561;28;20187;-83
2022/02/03 14:47:57;;;;;;;5.43;3.80;;;;;;;6.56;100.00;95389.50;5033848;28;20745;-81
2022/02/03 14:50:23;;;;;;;6.17;3.63;;;;;;;6.44;100.00;95391.31;5035268;28;20222;-81
2022/02/03 14:53:00;;;;;;;4.93;4.20;;;;;;;6.49;100.00;95390.00;5019347;28;20193;-81
2022/02/03 14:58:21;;;;;;;5.83;3.80;;;;;;;6.41;100.00;95384.66;5037047;28;20181;-81
2022/02/03 15:00:48;;;;;;;6.03;4.37;;;;;;;6.35;100.00;95397.22;5033180;28;20224;-81
2022/02/03 15:03:14;;;;;;;4.33;3.90;;;;;;;6.42;100.00;95406.09;5032653;28;20243;-81
2022/02/03 15:05:41;;;;;;;7.80;5.27;;;;;;;6.41;100.00;95396.72;5034203;28;20656;-82
2022/02/03 15:08:15;;;;;;;7.67;6.87;;;;;;;6.41;100.00;95402.72;5032243;28;20203;-81
2022/02/03 15:11:02;;;;;;;9.70;8.70;;;;;;;6.43;100.00;95387.91;5031617;28;20201;-79
2022/02/03 15:13:36;;;;;;;7.10;6.40;;;;;;;6.27;100.00;95377.22;5032487;28;20189;-82
2022/02/03 15:16:03;;;;;;;5.50;5.00;;;;;;;6.31;100.00;95381.19;5016753;28;20552;-83
2022/02/03 15:18:29;;;;;;;5.03;4.57;;;;;;;6.25;100.00;95377.34;5015328;28;20763;-80
2022/02/03 15:20:55;;;;;;;4.47;3.90;;;;;;;6.29;100.00;95375.34;5014575;28;20198;-81
2022/02/03 15:23:20;;;;;;;6.40;4.10;;;;;;;6.22;100.00;95385.34;5031595;28;20561;-79
2022/02/03 15:25:45;;;;;;;5.90;5.30;;;;;;;6.28;100.00;95385.81;5016121;28;20633;-80
2022/02/03 15:28:11;;;;;;;28.53;24.67;;;;;;;6.33;100.00;95392.19;5012925;28;20211;-79
2022/02/03 15:30:36;;;;;;;30.43;26.93;;;;;;;6.30;100.00;95389.06;4996348;28;20202;-80
2022/02/03 15:33:03;;;;;;;60.00;52.57;;;;;;;6.26;100.00;95396.22;5012004;28;20187;-79
2022/02/03 15:35:33;;;;;;;12.60;11.30;;;;;;;6.24;100.00;95395.53;5012956;28;20185;-81
2022/02/03 15:38:00;;;;;;;30.90;27.90;;;;;;;6.26;100.00;95396.22;5011496;28;20195;-81
2022/02/03 15:40:27;;;;;;;6.90;6.30;;;;;;;6.23;100.00;95401.63;5027795;28;20203;-80
2022/02/03 15:43:05;;;;;;;6.30;5.70;;;;;;;6.24;100.00;95395.53;4997620;28;20211;-80
2022/02/03 15:45:36;;;;;;;6.57;4.67;;;;;;;6.14;100.00;95392.06;5014405;28;20194;-80
2022/02/03 15:48:12;;;;;;;4.73;4.30;;;;;;;6.08;100.00;95400.28;4998018;28;20199;-81
2022/02/03 15:51:01;;;;;;;10.33;5.10;;;;;;;6.02;100.00;95381.00;4999961;28;20213;-81
2022/02/03 15:56:43;;;;;;;5.93;4.67;;;;;;;6.02;100.00;95375.03;5036922;28;20241;-81
2022/02/03 16:02:04;;;;;;;7.20;6.47;;;;;;;5.91;100.00;95375.88;5034389;28;20187;-82
2022/02/03 16:17:41;;;;;;;6.10;5.27;;;;;;;5.67;100.00;95366.56;5033772;28;20178;-81
2022/02/03 16:20:12;;;;;;;5.83;5.33;;;;;;;5.64;100.00;95358.25;5016871;28;20201;-82
2022/02/03 16:22:59;;;;;;;5.90;5.10;;;;;;;5.60;100.00;95370.56;5016556;28;20188;-82
2022/02/03 16:26:00;;;;;;;9.27;6.60;;;;;;;5.65;100.00;95377.91;5023363;28;20205;-82
2022/02/03 16:52:40;;;;;;;13.43;11.00;;;;;;;5.28;100.00;95364.53;5036539;28;20185;-80
2022/02/03 16:55:10;;;;;;;6.70;5.80;;;;;;;5.30;100.00;95368.66;5035115;28;20268;-83
2022/02/03 16:57:35;;;;;;;9.57;7.40;;;;;;;5.29;100.00;95361.03;5035544;28;20178;-81
2022/02/03 17:00:07;;;;;;;9.50;8.60;;;;;;;5.25;100.00;95369.94;5023292;28;20199;-82
2022/02/03 17:02:32;;;;;;;8.47;7.67;;;;;;;5.28;100.00;95379.97;5026550;28;20224;-81
2022/02/03 17:04:57;;;;;;;8.77;6.57;;;;;;;5.20;100.00;95372.84;5018148;28;20182;-82
2022/02/03 17:07:24;;;;;;;11.30;10.13;;;;;;;5.12;100.00;95364.91;5017106;28;20248;-81
2022/02/03 17:09:49;;;;;;;13.23;12.03;;;;;;;5.14;100.00;95352.75;5033564;28;20285;-82
2022/02/03 17:12:18;;;;;;;15.43;13.57;;;;;;;5.10;100.00;95359.88;5032352;28;20596;-80
2022/02/03 17:14:44;;;;;;;20.53;18.43;;;;;;;5.09;100.00;95349.72;5016408;28;20641;-85
2022/02/03 17:17:13;;;;;;;15.10;13.50;;;;;;;5.06;100.00;95350.78;5034829;28;20636;-81
2022/02/03 17:19:39;;;;;;;12.87;11.47;;;;;;;5.01;100.00;95352.06;5017218;28;20564;-82
2022/02/03 17:22:06;;;;;;;9.87;6.87;;;;;;;4.97;100.00;95359.22;5017640;28;20179;-81
2022/02/03 17:24:34;;;;;;;8.20;6.10;;;;;;;4.97;100.00;95351.47;5016677;28;20323;-81
2022/02/03 17:29:51;;;;;;;7.23;6.47;;;;;;;4.87;100.00;95358.28;5032733;28;20206;-81
2022/02/03 17:45:02;;;;;;;15.13;10.23;;;;;;;4.87;100.00;95373.72;5032571;28;20178;-81
2022/02/03 18:34:26;;;;;;;42.80;28.10;;;;;;;4.36;100.00;95366.41;5037419;28;20193;-82
2022/02/03 18:37:08;;;;;;;43.03;28.77;;;;;;;4.33;100.00;95371.78;5033073;28;20244;-83
2022/02/03 18:50:41;;;;;;;14.37;12.43;;;;;;;4.14;100.00;95350.94;5032450;28;20221;-82
2022/02/03 18:53:14;;;;;;;14.67;12.37;;;;;;;4.11;100.00;95359.69;5031124;28;20178;-81
2022/02/03 18:55:55;;;;;;;16.17;12.47;;;;;;;4.05;100.00;95357.56;5032116;28;20189;-81
2022/02/03 19:14:50;;;;;;;29.90;22.20;;;;;;;3.70;100.00;95331.88;5036776;28;20186;-82
2022/02/03 19:26:03;;;;;;;12.70;11.20;;;;;;;3.83;100.00;95313.84;5032403;28;20192;-82
2022/02/03 19:28:45;;;;;;;12.10;10.83;;;;;;;3.83;100.00;95308.69;5031673;28;20204;-82
2022/02/03 20:08:48;;;;;;;104.00;17.33;;;;;;;3.26;100.00;95347.88;5035357;28;20308;-82
2022/02/03 20:11:16;;;;;;;125.30;27.40;;;;;;;3.18;100.00;95347.59;5034471;28;20339;-82
2022/02/03 20:13:41;;;;;;;71.63;25.07;;;;;;;3.20;100.00;95345.78;5035628;28;20181;-82
2022/02/03 20:16:07;;;;;;;37.87;18.90;;;;;;;3.22;100.00;95346.47;5035052;28;20187;-82
2022/02/03 20:18:33;;;;;;;24.83;15.47;;;;;;;3.25;100.00;95348.81;5030553;28;20305;-82
2022/02/03 20:20:58;;;;;;;45.73;14.93;;;;;;;3.26;100.00;95358.16;5029033;28;20243;-83
2022/02/03 20:23:24;;;;;;;108.03;21.30;;;;;;;3.25;100.00;95351.38;5020093;28;20278;-83
2022/02/03 20:25:59;;;;;;;28.30;18.53;;;;;;;3.31;100.00;95348.38;5015183;28;20713;-83
2022/02/03 20:28:25;;;;;;;23.70;15.47;;;;;;;3.39;100.00;95352.06;4999138;28;20237;-83
2022/02/03 20:30:51;;;;;;;19.03;14.07;;;;;;;3.44;100.00;95349.16;4998418;28;20226;-83
2022/02/03 20:33:16;;;;;;;24.93;17.07;;;;;;;3.40;100.00;95345.16;4997441;28;20668;-83
2022/02/03 20:35:41;;;;;;;24.17;16.27;;;;;;;3.48;100.00;95350.59;5013347;28;20807;-83
2022/02/03 20:38:07;;;;;;;20.90;15.07;;;;;;;3.49;100.00;95343.69;4998194;28;20555;-84
2022/02/03 20:40:33;;;;;;;22.47;14.70;;;;;;;3.53;100.00;95351.06;4998016;28;20568;-83
2022/02/03 20:42:58;;;;;;;25.60;16.60;;;;;;;3.58;100.00;95349.00;5013559;28;20656;-83
2022/02/03 20:45:23;;;;;;;26.23;17.97;;;;;;;3.63;100.00;95349.50;4997249;28;20177;-83
2022/02/03 20:47:50;;;;;;;27.33;19.27;;;;;;;3.69;100.00;95349.03;4997607;28;20269;-83
2022/02/03 20:50:20;;;;;;;41.60;24.33;;;;;;;3.68;100.00;95346.59;5028923;28;20212;-83
2022/02/03 20:52:46;;;;;;;33.33;21.60;;;;;;;3.74;100.00;95343.56;5015096;28;20709;-83
2022/02/03 20:55:11;;;;;;;51.23;27.60;;;;;;;3.76;100.00;95340.91;5014719;28;20189;-83
2022/02/03 20:57:37;;;;;;;41.20;24.97;;;;;;;3.78;100.00;95342.41;5013827;28;20190;-83
2022/02/03 21:00:17;;;;;;;28.13;19.03;;;;;;;3.79;100.00;95336.34;5030786;28;20213;-83
2022/02/03 21:03:04;;;;;;;25.07;16.93;;;;;;;3.83;100.00;95331.81;5027799;28;20297;-83
2022/02/03 21:05:29;;;;;;;22.13;17.47;;;;;;;3.85;100.00;95328.19;5018246;28;20267;-83
2022/02/03 21:07:55;;;;;;;19.30;15.10;;;;;;;3.90;100.00;95323.56;5007043;28;20365;-82
2022/02/03 21:10:27;;;;;;;18.97;15.13;;;;;;;3.91;100.00;95320.06;4995663;28;20227;-84